Helena, New York
Current Conditions -  °F | °C
As of 11:37 AM on Thursday 30 Oct 2014 (Local Time) from KMSS Reporting Station
Broken Clouds Broken Clouds  
Wind Chill: 41°   Ceiling: 3000
Heat Index: 44°   Visibility: 10mi
Dew Point: 33°   Wind: 6mph
Humidity: 65%   Direction: 290°WNW
Pressure: 30.02"   Gusts: NA
Location:  44.92°N, 74.73°W
Report Text: KMSS 301537Z AUTO 29005KT 10SM FEW024 BKN030 07/01 A3002 RMK AO2 T00670006
Loading
Personal Weather Stations






























Interactive Weather Map
Tropical Storm Tracking
New forecast layout! Learn more

10-Day Weather Forecast

Advertisements
Track Severe Weather on mobile